sensor_id;sensor_type;location;lat;lon;timestamp;pressure;altitude;pressure_sealevel;temperature;humidity
64292;BME280;50628;51.008;13.658;2022-12-11T00:02:48;99031.06;;;-1.42;100.00
64292;BME280;50628;51.008;13.658;2022-12-11T00:07:50;99028.94;;;-1.33;100.00
64292;BME280;50628;51.008;13.658;2022-12-11T00:12:53;99031.78;;;-1.20;100.00
64292;BME280;50628;51.008;13.658;2022-12-11T00:17:56;99035.00;;;-1.35;100.00
64292;BME280;50628;51.008;13.658;2022-12-11T00:22:58;99036.06;;;-1.20;100.00
64292;BME280;50628;51.008;13.658;2022-12-11T00:28:01;99032.06;;;-1.26;100.00
64292;BME280;50628;51.008;13.658;2022-12-11T00:33:03;99029.38;;;-1.23;100.00
64292;BME280;50628;51.008;13.658;2022-12-11T00:38:06;99034.00;;;-1.12;100.00
64292;BME280;50628;51.008;13.658;2022-12-11T00:43:09;99043.81;;;-1.42;100.00
64292;BME280;50628;51.008;13.658;2022-12-11T00:48:12;99035.97;;;-1.38;100.00
64292;BME280;50628;51.008;13.658;2022-12-11T00:53:15;99038.66;;;-1.41;100.00
64292;BME280;50628;51.008;13.658;2022-12-11T00:58:18;99031.50;;;-1.33;100.00
64292;BME280;50628;51.008;13.658;2022-12-11T01:03:20;99033.75;;;-1.45;100.00
64292;BME280;50628;51.008;13.658;2022-12-11T01:08:22;99040.50;;;-1.44;100.00
64292;BME280;50628;51.008;13.658;2022-12-11T01:13:25;99040.19;;;-1.57;100.00
64292;BME280;50628;51.008;13.658;2022-12-11T01:18:27;99044.84;;;-1.67;100.00
64292;BME280;50628;51.008;13.658;2022-12-11T01:23:29;99058.31;;;-1.43;100.00
64292;BME280;50628;51.008;13.658;2022-12-11T01:28:33;99054.81;;;-1.61;100.00
64292;BME280;50628;51.008;13.658;2022-12-11T01:33:35;99048.22;;;-1.66;100.00
64292;BME280;50628;51.008;13.658;2022-12-11T01:38:37;99049.19;;;-1.69;100.00
64292;BME280;50628;51.008;13.658;2022-12-11T01:44:01;99054.63;;;-1.56;100.00
64292;BME280;50628;51.008;13.658;2022-12-11T01:49:06;99061.53;;;-1.79;100.00
64292;BME280;50628;51.008;13.658;2022-12-11T01:54:12;99058.13;;;-1.79;100.00
64292;BME280;50628;51.008;13.658;2022-12-11T01:59:21;99045.81;;;-1.69;100.00
64292;BME280;50628;51.008;13.658;2022-12-11T02:04:25;99056.66;;;-1.85;100.00
64292;BME280;50628;51.008;13.658;2022-12-11T02:09:30;99047.50;;;-1.68;100.00
64292;BME280;50628;51.008;13.658;2022-12-11T02:14:38;99052.81;;;-1.75;100.00
64292;BME280;50628;51.008;13.658;2022-12-11T02:19:54;99047.81;;;-1.56;100.00
64292;BME280;50628;51.008;13.658;2022-12-11T02:25:06;99040.66;;;-1.68;100.00
64292;BME280;50628;51.008;13.658;2022-12-11T02:30:16;99039.56;;;-1.83;100.00
64292;BME280;50628;51.008;13.658;2022-12-11T02:35:20;99038.97;;;-1.89;100.00
64292;BME280;50628;51.008;13.658;2022-12-11T02:40:25;99035.09;;;-1.98;100.00
64292;BME280;50628;51.008;13.658;2022-12-11T02:45:30;99032.91;;;-1.87;100.00
64292;BME280;50628;51.008;13.658;2022-12-11T02:50:33;99031.88;;;-1.81;100.00
64292;BME280;50628;51.008;13.658;2022-12-11T02:55:39;99035.22;;;-2.01;100.00
64292;BME280;50628;51.008;13.658;2022-12-11T03:00:44;99028.91;;;-1.92;100.00
64292;BME280;50628;51.008;13.658;2022-12-11T03:05:47;99034.38;;;-2.02;100.00
64292;BME280;50628;51.008;13.658;2022-12-11T03:10:48;99039.72;;;-2.08;100.00
64292;BME280;50628;51.008;13.658;2022-12-11T03:16:00;99036.69;;;-1.96;100.00
64292;BME280;50628;51.008;13.658;2022-12-11T03:21:07;99041.81;;;-1.75;100.00
64292;BME280;50628;51.008;13.658;2022-12-11T03:26:11;99037.97;;;-1.65;100.00
64292;BME280;50628;51.008;13.658;2022-12-11T03:31:20;99031.09;;;-1.83;100.00
64292;BME280;50628;51.008;13.658;2022-12-11T03:36:29;99034.09;;;-1.73;100.00
64292;BME280;50628;51.008;13.658;2022-12-11T03:41:33;99041.63;;;-1.70;100.00
64292;BME280;50628;51.008;13.658;2022-12-11T03:46:39;99034.47;;;-1.62;100.00
64292;BME280;50628;51.008;13.658;2022-12-11T03:51:42;99042.81;;;-1.79;100.00
64292;BME280;50628;51.008;13.658;2022-12-11T03:56:45;99045.59;;;-2.06;100.00
64292;BME280;50628;51.008;13.658;2022-12-11T04:01:50;99048.03;;;-2.03;100.00
64292;BME280;50628;51.008;13.658;2022-12-11T04:06:52;99045.53;;;-2.04;100.00
64292;BME280;50628;51.008;13.658;2022-12-11T04:11:54;99039.88;;;-1.90;100.00
64292;BME280;50628;51.008;13.658;2022-12-11T04:16:58;99041.34;;;-2.05;100.00
64292;BME280;50628;51.008;13.658;2022-12-11T04:22:00;99044.94;;;-1.89;100.00
64292;BME280;50628;51.008;13.658;2022-12-11T04:27:20;99053.72;;;-1.96;100.00
64292;BME280;50628;51.008;13.658;2022-12-11T04:32:37;99043.03;;;-1.84;100.00
64292;BME280;50628;51.008;13.658;2022-12-11T04:37:40;99047.72;;;-1.75;100.00
64292;BME280;50628;51.008;13.658;2022-12-11T04:42:42;99032.91;;;-1.87;100.00
64292;BME280;50628;51.008;13.658;2022-12-11T04:47:45;99032.81;;;-1.84;100.00
64292;BME280;50628;51.008;13.658;2022-12-11T04:52:47;99040.06;;;-1.95;100.00
64292;BME280;50628;51.008;13.658;2022-12-11T04:57:49;99043.56;;;-1.77;100.00
64292;BME280;50628;51.008;13.658;2022-12-11T05:02:52;99032.00;;;-1.64;100.00
64292;BME280;50628;51.008;13.658;2022-12-11T05:07:54;99027.00;;;-1.87;100.00
64292;BME280;50628;51.008;13.658;2022-12-11T05:12:56;99023.81;;;-1.72;100.00
64292;BME280;50628;51.008;13.658;2022-12-11T05:18:00;99010.28;;;-1.74;100.00
64292;BME280;50628;51.008;13.658;2022-12-11T05:23:01;99017.59;;;-2.07;100.00
64292;BME280;50628;51.008;13.658;2022-12-11T05:28:03;99015.84;;;-2.05;100.00
64292;BME280;50628;51.008;13.658;2022-12-11T05:33:07;99019.91;;;-2.44;100.00
64292;BME280;50628;51.008;13.658;2022-12-11T05:38:08;99020.06;;;-2.70;100.00
64292;BME280;50628;51.008;13.658;2022-12-11T05:43:10;99019.25;;;-2.71;100.00
64292;BME280;50628;51.008;13.658;2022-12-11T05:48:13;99022.09;;;-2.78;100.00
64292;BME280;50628;51.008;13.658;2022-12-11T05:53:15;99007.59;;;-3.00;100.00
64292;BME280;50628;51.008;13.658;2022-12-11T05:58:17;99024.94;;;-2.86;100.00
64292;BME280;50628;51.008;13.658;2022-12-11T06:03:20;99021.84;;;-2.72;100.00
64292;BME280;50628;51.008;13.658;2022-12-11T06:08:22;99011.16;;;-3.04;100.00
64292;BME280;50628;51.008;13.658;2022-12-11T06:13:25;99011.50;;;-3.13;100.00
64292;BME280;50628;51.008;13.658;2022-12-11T06:18:28;99015.09;;;-3.19;100.00
64292;BME280;50628;51.008;13.658;2022-12-11T06:23:30;99014.56;;;-3.05;100.00
64292;BME280;50628;51.008;13.658;2022-12-11T06:28:32;99019.34;;;-3.19;100.00
64292;BME280;50628;51.008;13.658;2022-12-11T06:33:35;99019.34;;;-3.19;100.00
64292;BME280;50628;51.008;13.658;2022-12-11T06:38:38;99030.09;;;-3.11;100.00
64292;BME280;50628;51.008;13.658;2022-12-11T06:43:40;99031.78;;;-2.88;100.00
64292;BME280;50628;51.008;13.658;2022-12-11T06:48:44;99024.00;;;-3.07;100.00
64292;BME280;50628;51.008;13.658;2022-12-11T06:53:50;99030.88;;;-3.09;100.00
64292;BME280;50628;51.008;13.658;2022-12-11T06:58:52;99023.66;;;-3.21;100.00
64292;BME280;50628;51.008;13.658;2022-12-11T07:03:58;99028.31;;;-3.09;100.00
64292;BME280;50628;51.008;13.658;2022-12-11T07:09:02;99032.97;;;-3.20;100.00
64292;BME280;50628;51.008;13.658;2022-12-11T07:14:04;99045.09;;;-3.27;100.00
64292;BME280;50628;51.008;13.658;2022-12-11T07:19:08;99040.69;;;-3.23;100.00
64292;BME280;50628;51.008;13.658;2022-12-11T07:24:10;99038.09;;;-2.98;100.00
64292;BME280;50628;51.008;13.658;2022-12-11T07:29:12;99049.28;;;-3.26;100.00
64292;BME280;50628;51.008;13.658;2022-12-11T07:34:15;99050.19;;;-3.27;100.00
64292;BME280;50628;51.008;13.658;2022-12-11T07:39:17;99051.91;;;-3.28;100.00
64292;BME280;50628;51.008;13.658;2022-12-11T07:44:19;99051.16;;;-3.08;100.00
64292;BME280;50628;51.008;13.658;2022-12-11T07:49:22;99062.31;;;-3.35;100.00
64292;BME280;50628;51.008;13.658;2022-12-11T07:54:24;99061.03;;;-3.22;100.00
64292;BME280;50628;51.008;13.658;2022-12-11T07:59:26;99054.88;;;-3.16;100.00
64292;BME280;50628;51.008;13.658;2022-12-11T08:04:29;99062.66;;;-3.21;100.00
64292;BME280;50628;51.008;13.658;2022-12-11T08:09:32;99058.91;;;-3.34;100.00
64292;BME280;50628;51.008;13.658;2022-12-11T08:14:34;99052.09;;;-3.34;100.00
64292;BME280;50628;51.008;13.658;2022-12-11T08:19:37;99057.75;;;-3.26;100.00
64292;BME280;50628;51.008;13.658;2022-12-11T08:24:39;99056.25;;;-3.31;100.00
64292;BME280;50628;51.008;13.658;2022-12-11T08:29:41;99053.50;;;-3.25;100.00
64292;BME280;50628;51.008;13.658;2022-12-11T08:34:44;99045.09;;;-3.27;100.00
64292;BME280;50628;51.008;13.658;2022-12-11T08:39:46;99042.81;;;-3.11;100.00
64292;BME280;50628;51.008;13.658;2022-12-11T08:44:48;99036.00;;;-3.34;100.00
64292;BME280;50628;51.008;13.658;2022-12-11T08:49:52;99043.88;;;-3.17;100.00
64292;BME280;50628;51.008;13.658;2022-12-11T08:54:54;99041.03;;;-3.33;100.00
64292;BME280;50628;51.008;13.658;2022-12-11T08:59:56;99039.50;;;-3.13;100.00
64292;BME280;50628;51.008;13.658;2022-12-11T09:04:59;99046.47;;;-2.95;100.00
64292;BME280;50628;51.008;13.658;2022-12-11T09:10:01;99053.25;;;-2.95;100.00
64292;BME280;50628;51.008;13.658;2022-12-11T09:15:04;99050.44;;;-2.88;100.00
64292;BME280;50628;51.008;13.658;2022-12-11T09:20:08;99049.28;;;-3.02;100.00
64292;BME280;50628;51.008;13.658;2022-12-11T09:25:10;99043.09;;;-3.19;100.00
64292;BME280;50628;51.008;13.658;2022-12-11T09:30:13;99044.34;;;-2.84;100.00
64292;BME280;50628;51.008;13.658;2022-12-11T09:35:16;99052.03;;;-2.62;100.00
64292;BME280;50628;51.008;13.658;2022-12-11T09:40:18;99039.28;;;-2.62;100.00
64292;BME280;50628;51.008;13.658;2022-12-11T09:45:20;99038.28;;;-2.57;100.00
64292;BME280;50628;51.008;13.658;2022-12-11T09:50:26;99039.75;;;-2.30;100.00
64292;BME280;50628;51.008;13.658;2022-12-11T09:55:32;99037.75;;;-2.44;100.00
64292;BME280;50628;51.008;13.658;2022-12-11T10:00:39;99043.59;;;-2.64;100.00
64292;BME280;50628;51.008;13.658;2022-12-11T10:05:46;99032.69;;;-2.89;100.00
64292;BME280;50628;51.008;13.658;2022-12-11T10:10:57;99030.44;;;-2.97;100.00
64292;BME280;50628;51.008;13.658;2022-12-11T10:16:06;99027.91;;;-2.53;100.00
64292;BME280;50628;51.008;13.658;2022-12-11T10:21:15;99011.34;;;-2.21;100.00
64292;BME280;50628;51.008;13.658;2022-12-11T10:26:19;99000.38;;;-2.23;100.00
64292;BME280;50628;51.008;13.658;2022-12-11T10:31:27;99005.91;;;-2.77;100.00
64292;BME280;50628;51.008;13.658;2022-12-11T10:36:34;99008.91;;;-2.66;100.00
64292;BME280;50628;51.008;13.658;2022-12-11T10:41:38;99012.63;;;-2.31;100.00
64292;BME280;50628;51.008;13.658;2022-12-11T10:46:40;99005.97;;;-2.35;100.00
64292;BME280;50628;51.008;13.658;2022-12-11T10:51:44;98996.75;;;-2.59;100.00
64292;BME280;50628;51.008;13.658;2022-12-11T10:56:47;98987.03;;;-2.72;100.00
64292;BME280;50628;51.008;13.658;2022-12-11T11:01:49;98983.63;;;-2.50;100.00
64292;BME280;50628;51.008;13.658;2022-12-11T11:07:02;98984.75;;;-2.57;100.00
64292;BME280;50628;51.008;13.658;2022-12-11T11:12:17;98976.44;;;-2.61;100.00
64292;BME280;50628;51.008;13.658;2022-12-11T11:17:19;98972.63;;;-2.73;100.00
64292;BME280;50628;51.008;13.658;2022-12-11T11:22:22;98971.66;;;-2.26;100.00
64292;BME280;50628;51.008;13.658;2022-12-11T11:27:28;98966.44;;;-2.45;100.00
64292;BME280;50628;51.008;13.658;2022-12-11T11:32:33;98950.50;;;-2.08;100.00
64292;BME280;50628;51.008;13.658;2022-12-11T11:37:41;98960.81;;;-2.31;100.00
64292;BME280;50628;51.008;13.658;2022-12-11T11:42:49;98952.06;;;-1.85;100.00
64292;BME280;50628;51.008;13.658;2022-12-11T11:48:01;98954.16;;;-2.56;100.00
64292;BME280;50628;51.008;13.658;2022-12-11T11:53:12;98941.53;;;-2.59;100.00
64292;BME280;50628;51.008;13.658;2022-12-11T11:58:20;98934.06;;;-2.64;100.00
64292;BME280;50628;51.008;13.658;2022-12-11T12:03:24;98924.88;;;-2.68;100.00
64292;BME280;50628;51.008;13.658;2022-12-11T12:08:41;98933.16;;;-2.63;100.00
64292;BME280;50628;51.008;13.658;2022-12-11T12:13:53;98942.06;;;-2.51;100.00
64292;BME280;50628;51.008;13.658;2022-12-11T12:19:00;98935.91;;;-2.67;100.00
64292;BME280;50628;51.008;13.658;2022-12-11T12:24:17;98942.59;;;-2.65;100.00
64292;BME280;50628;51.008;13.658;2022-12-11T12:29:30;98934.41;;;-2.73;100.00
64292;BME280;50628;51.008;13.658;2022-12-11T12:34:56;98923.78;;;-1.99;100.00
64292;BME280;50628;51.008;13.658;2022-12-11T12:40:13;98925.97;;;-1.71;100.00
64292;BME280;50628;51.008;13.658;2022-12-11T12:45:22;98919.72;;;-1.84;100.00
64292;BME280;50628;51.008;13.658;2022-12-11T12:50:37;98920.63;;;-1.46;100.00
64292;BME280;50628;51.008;13.658;2022-12-11T12:55:41;98910.06;;;-1.57;100.00
64292;BME280;50628;51.008;13.658;2022-12-11T13:00:43;98905.00;;;-1.02;100.00
64292;BME280;50628;51.008;13.658;2022-12-11T13:05:56;98899.97;;;-0.50;100.00
64292;BME280;50628;51.008;13.658;2022-12-11T13:11:01;98897.34;;;-0.66;100.00
64292;BME280;50628;51.008;13.658;2022-12-11T13:16:23;98899.97;;;-0.32;100.00
64292;BME280;50628;51.008;13.658;2022-12-11T13:21:29;98882.06;;;-0.50;100.00
64292;BME280;50628;51.008;13.658;2022-12-11T13:26:33;98892.78;;;-0.95;100.00
64292;BME280;50628;51.008;13.658;2022-12-11T13:31:36;98894.06;;;-1.61;100.00
64292;BME280;50628;51.008;13.658;2022-12-11T13:36:38;98893.09;;;-2.16;100.00
64292;BME280;50628;51.008;13.658;2022-12-11T13:41:45;98903.03;;;-2.31;100.00
64292;BME280;50628;51.008;13.658;2022-12-11T13:46:48;98905.06;;;-2.39;100.00
64292;BME280;50628;51.008;13.658;2022-12-11T13:51:53;98927.41;;;-2.46;100.00
64292;BME280;50628;51.008;13.658;2022-12-11T13:56:59;98928.25;;;-2.67;100.00
64292;BME280;50628;51.008;13.658;2022-12-11T14:02:13;98930.28;;;-2.75;100.00
64292;BME280;50628;51.008;13.658;2022-12-11T14:07:20;98922.09;;;-2.62;100.00
64292;BME280;50628;51.008;13.658;2022-12-11T14:12:27;98918.16;;;-2.69;100.00
64292;BME280;50628;51.008;13.658;2022-12-11T14:17:31;98911.03;;;-2.40;100.00
64292;BME280;50628;51.008;13.658;2022-12-11T14:22:34;98921.50;;;-2.68;100.00
64292;BME280;50628;51.008;13.658;2022-12-11T14:27:47;98920.03;;;-2.52;100.00
64292;BME280;50628;51.008;13.658;2022-12-11T14:32:50;98920.28;;;-2.80;100.00
64292;BME280;50628;51.008;13.658;2022-12-11T14:37:55;98923.94;;;-2.65;100.00
64292;BME280;50628;51.008;13.658;2022-12-11T14:43:01;98921.63;;;-2.71;100.00
64292;BME280;50628;51.008;13.658;2022-12-11T14:48:12;98922.25;;;-2.87;100.00
64292;BME280;50628;51.008;13.658;2022-12-11T14:53:19;98929.81;;;-2.85;100.00
64292;BME280;50628;51.008;13.658;2022-12-11T14:58:25;98932.34;;;-2.85;100.00
64292;BME280;50628;51.008;13.658;2022-12-11T15:03:30;98938.41;;;-2.88;100.00
64292;BME280;50628;51.008;13.658;2022-12-11T15:08:33;98937.09;;;-2.98;100.00
64292;BME280;50628;51.008;13.658;2022-12-11T15:13:44;98949.34;;;-3.08;100.00
64292;BME280;50628;51.008;13.658;2022-12-11T15:18:50;98938.03;;;-3.00;100.00
64292;BME280;50628;51.008;13.658;2022-12-11T15:23:54;98945.03;;;-2.84;100.00
64292;BME280;50628;51.008;13.658;2022-12-11T15:29:00;98941.53;;;-2.81;100.00
64292;BME280;50628;51.008;13.658;2022-12-11T15:34:21;98939.38;;;-2.70;100.00
64292;BME280;50628;51.008;13.658;2022-12-11T15:39:23;98929.81;;;-2.85;100.00
64292;BME280;50628;51.008;13.658;2022-12-11T15:44:26;98930.56;;;-3.05;100.00
64292;BME280;50628;51.008;13.658;2022-12-11T15:49:28;98931.78;;;-2.92;100.00
64292;BME280;50628;51.008;13.658;2022-12-11T15:54:30;98943.72;;;-2.94;100.00
64292;BME280;50628;51.008;13.658;2022-12-11T15:59:33;98939.72;;;-2.99;100.00
64292;BME280;50628;51.008;13.658;2022-12-11T16:04:35;98942.19;;;-3.20;100.00
64292;BME280;50628;51.008;13.658;2022-12-11T16:09:37;98951.41;;;-3.17;100.00
64292;BME280;50628;51.008;13.658;2022-12-11T16:14:40;98947.00;;;-3.12;100.00
64292;BME280;50628;51.008;13.658;2022-12-11T16:19:43;98957.16;;;-3.12;100.00
64292;BME280;50628;51.008;13.658;2022-12-11T16:24:45;98947.34;;;-2.99;100.00
64292;BME280;50628;51.008;13.658;2022-12-11T16:29:48;98940.81;;;-3.07;100.00
64292;BME280;50628;51.008;13.658;2022-12-11T16:34:50;98945.09;;;-3.07;100.00
64292;BME280;50628;51.008;13.658;2022-12-11T16:39:53;98946.75;;;-3.06;100.00
64292;BME280;50628;51.008;13.658;2022-12-11T16:45:03;98949.78;;;-2.96;100.00
64292;BME280;50628;51.008;13.658;2022-12-11T16:50:06;98950.44;;;-2.91;100.00
64292;BME280;50628;51.008;13.658;2022-12-11T16:55:09;98937.81;;;-2.94;100.00
64292;BME280;50628;51.008;13.658;2022-12-11T17:00:13;98947.44;;;-3.02;100.00
64292;BME280;50628;51.008;13.658;2022-12-11T17:05:16;98945.91;;;-3.07;100.00
64292;BME280;50628;51.008;13.658;2022-12-11T17:10:18;98947.72;;;-3.10;100.00
64292;BME280;50628;51.008;13.658;2022-12-11T17:15:24;98948.69;;;-3.13;100.00
64292;BME280;50628;51.008;13.658;2022-12-11T17:20:26;98954.38;;;-3.06;100.00
64292;BME280;50628;51.008;13.658;2022-12-11T17:25:28;98953.19;;;-3.19;100.00
64292;BME280;50628;51.008;13.658;2022-12-11T17:30:31;98951.59;;;-3.22;100.00
64292;BME280;50628;51.008;13.658;2022-12-11T17:35:34;98958.41;;;-3.22;100.00
64292;BME280;50628;51.008;13.658;2022-12-11T17:40:38;98955.06;;;-3.24;100.00
64292;BME280;50628;51.008;13.658;2022-12-11T17:45:42;98950.34;;;-3.12;100.00
64292;BME280;50628;51.008;13.658;2022-12-11T17:50:45;98950.47;;;-3.15;100.00
64292;BME280;50628;51.008;13.658;2022-12-11T17:55:48;98946.34;;;-3.17;100.00
64292;BME280;50628;51.008;13.658;2022-12-11T18:00:53;98956.41;;;-2.92;100.00
64292;BME280;50628;51.008;13.658;2022-12-11T18:06:02;98950.94;;;-3.05;100.00
64292;BME280;50628;51.008;13.658;2022-12-11T18:11:06;98947.72;;;-3.10;100.00
64292;BME280;50628;51.008;13.658;2022-12-11T18:16:11;98948.09;;;-3.19;100.00
64292;BME280;50628;51.008;13.658;2022-12-11T18:21:15;98958.28;;;-2.97;100.00
64292;BME280;50628;51.008;13.658;2022-12-11T18:26:18;98947.75;;;-2.88;100.00
64292;BME280;50628;51.008;13.658;2022-12-11T18:31:22;98951.97;;;-2.87;100.00
64292;BME280;50628;51.008;13.658;2022-12-11T18:36:25;98960.50;;;-2.88;100.00
64292;BME280;50628;51.008;13.658;2022-12-11T18:41:29;98965.00;;;-2.95;100.00
64292;BME280;50628;51.008;13.658;2022-12-11T18:46:32;98956.34;;;-2.91;100.00
64292;BME280;50628;51.008;13.658;2022-12-11T18:51:34;98952.06;;;-2.90;100.00
64292;BME280;50628;51.008;13.658;2022-12-11T18:56:37;98956.69;;;-3.00;100.00
64292;BME280;50628;51.008;13.658;2022-12-11T19:01:42;98941.34;;;-3.20;100.00
64292;BME280;50628;51.008;13.658;2022-12-11T19:06:44;98944.59;;;-3.17;100.00
64292;BME280;50628;51.008;13.658;2022-12-11T19:11:46;98941.78;;;-3.09;100.00
64292;BME280;50628;51.008;13.658;2022-12-11T19:16:49;98945.69;;;-3.00;100.00
64292;BME280;50628;51.008;13.658;2022-12-11T19:21:51;98936.16;;;-2.95;100.00
64292;BME280;50628;51.008;13.658;2022-12-11T19:26:53;98936.63;;;-2.86;100.00
64292;BME280;50628;51.008;13.658;2022-12-11T19:31:57;98943.84;;;-2.97;100.00
64292;BME280;50628;51.008;13.658;2022-12-11T19:36:59;98937.81;;;-2.94;100.00
64292;BME280;50628;51.008;13.658;2022-12-11T19:42:02;98939.47;;;-2.93;100.00
64292;BME280;50628;51.008;13.658;2022-12-11T19:47:06;98946.88;;;-2.87;100.00
64292;BME280;50628;51.008;13.658;2022-12-11T19:52:08;98943.50;;;-3.10;100.00
64292;BME280;50628;51.008;13.658;2022-12-11T19:57:10;98941.41;;;-3.00;100.00
64292;BME280;50628;51.008;13.658;2022-12-11T20:02:14;98942.06;;;-3.17;100.00
64292;BME280;50628;51.008;13.658;2022-12-11T20:07:16;98941.53;;;-3.03;100.00
64292;BME280;50628;51.008;13.658;2022-12-11T20:12:18;98936.75;;;-2.89;100.00
64292;BME280;50628;51.008;13.658;2022-12-11T20:17:21;98946.56;;;-3.01;100.00
64292;BME280;50628;51.008;13.658;2022-12-11T20:22:23;98938.88;;;-2.78;100.00
64292;BME280;50628;51.008;13.658;2022-12-11T20:27:25;98939.03;;;-2.83;100.00
64292;BME280;50628;51.008;13.658;2022-12-11T20:32:29;98935.03;;;-2.66;100.00
64292;BME280;50628;51.008;13.658;2022-12-11T20:37:31;98942.13;;;-2.96;100.00
64292;BME280;50628;51.008;13.658;2022-12-11T20:42:33;98936.91;;;-2.93;100.00
64292;BME280;50628;51.008;13.658;2022-12-11T20:47:36;98937.75;;;-2.93;100.00
64292;BME280;50628;51.008;13.658;2022-12-11T20:52:38;98938.09;;;-2.80;100.00
64292;BME280;50628;51.008;13.658;2022-12-11T20:57:40;98940.91;;;-2.86;100.00
64292;BME280;50628;51.008;13.658;2022-12-11T21:02:43;98942.75;;;-2.90;100.00
64292;BME280;50628;51.008;13.658;2022-12-11T21:07:45;98936.91;;;-3.15;100.00
64292;BME280;50628;51.008;13.658;2022-12-11T21:12:47;98931.94;;;-3.18;100.00
64292;BME280;50628;51.008;13.658;2022-12-11T21:17:50;98930.81;;;-3.11;100.00
64292;BME280;50628;51.008;13.658;2022-12-11T21:22:52;98924.81;;;-3.10;100.00
64292;BME280;50628;51.008;13.658;2022-12-11T21:27:54;98935.50;;;-3.00;100.00
64292;BME280;50628;51.008;13.658;2022-12-11T21:32:57;98926.50;;;-3.09;100.00
64292;BME280;50628;51.008;13.658;2022-12-11T21:38:00;98925.69;;;-3.10;100.00
64292;BME280;50628;51.008;13.658;2022-12-11T21:43:02;98923.31;;;-3.14;100.00
64292;BME280;50628;51.008;13.658;2022-12-11T21:48:05;98918.44;;;-3.20;100.00
64292;BME280;50628;51.008;13.658;2022-12-11T21:53:07;98925.88;;;-3.16;100.00
64292;BME280;50628;51.008;13.658;2022-12-11T21:58:09;98909.34;;;-3.04;100.00
64292;BME280;50628;51.008;13.658;2022-12-11T22:03:12;98910.75;;;-2.97;100.00
64292;BME280;50628;51.008;13.658;2022-12-11T22:08:14;98913.53;;;-3.03;100.00
64292;BME280;50628;51.008;13.658;2022-12-11T22:13:16;98913.03;;;-3.13;100.00
64292;BME280;50628;51.008;13.658;2022-12-11T22:18:21;98919.81;;;-3.12;100.00
64292;BME280;50628;51.008;13.658;2022-12-11T22:23:26;98915.72;;;-3.16;100.00
64292;BME280;50628;51.008;13.658;2022-12-11T22:28:28;98911.53;;;-3.17;100.00
64292;BME280;50628;51.008;13.658;2022-12-11T22:33:31;98907.25;;;-3.16;100.00
64292;BME280;50628;51.008;13.658;2022-12-11T22:38:33;98912.00;;;-3.07;100.00
64292;BME280;50628;51.008;13.658;2022-12-11T22:43:35;98903.16;;;-2.98;100.00
64292;BME280;50628;51.008;13.658;2022-12-11T22:48:39;98911.41;;;-2.92;100.00
64292;BME280;50628;51.008;13.658;2022-12-11T22:53:41;98915.53;;;-3.11;100.00
64292;BME280;50628;51.008;13.658;2022-12-11T22:58:43;98910.56;;;-3.14;100.00
64292;BME280;50628;51.008;13.658;2022-12-11T23:03:46;98917.91;;;-3.07;100.00
64292;BME280;50628;51.008;13.658;2022-12-11T23:08:48;98916.81;;;-2.99;100.00
64292;BME280;50628;51.008;13.658;2022-12-11T23:13:51;98918.22;;;-3.14;100.00
64292;BME280;50628;51.008;13.658;2022-12-11T23:18:55;98920.16;;;-2.99;100.00
64292;BME280;50628;51.008;13.658;2022-12-11T23:23:57;98926.84;;;-2.96;100.00
64292;BME280;50628;51.008;13.658;2022-12-11T23:29:00;98922.59;;;-2.96;100.00
64292;BME280;50628;51.008;13.658;2022-12-11T23:34:03;98917.84;;;-3.05;100.00
64292;BME280;50628;51.008;13.658;2022-12-11T23:39:07;98928.94;;;-3.06;100.00
64292;BME280;50628;51.008;13.658;2022-12-11T23:44:09;98932.25;;;-3.04;100.00
64292;BME280;50628;51.008;13.658;2022-12-11T23:49:12;98934.03;;;-2.84;100.00
64292;BME280;50628;51.008;13.658;2022-12-11T23:54:15;98929.63;;;-3.02;100.00
64292;BME280;50628;51.008;13.658;2022-12-11T23:59:17;98937.91;;;-2.97;100.00
